Mazagon R — EAII — position and weather

sailwx.info

Track history (hours):
 
Tides and Currents Weather Stations Pressure Air Temp Water Temp Dewpoint Dewpoint Depression Visibility Wind Speed Wind Dir Waves Ship Positions

Mazagon R

Last reported at 2017-Sep-22 02:00 UTC. Time now 2017-Sep-22 02:49 UTC.
Position S 05°15' E 011°27'.

Length 34 m.

Type: Fishing. MMSI: 224300000.

Date/timePositionNaut miles runAvg speedWind from/ knotsBaromVisibWave heightAir tempDewpointWater temp
2017-Sep-22 02:00S 05°15' E 011°27'2 3.1
2017-Sep-22 01:30S 05°16' E 011°27'2 3.1
2017-Sep-22 01:00S 05°18' E 011°28'2 3.1
2017-Sep-22 00:30S 05°19' E 011°28'2 3.4
2017-Sep-22 00:00S 05°21' E 011°28'0 0.9
2017-Sep-21 23:29S 05°21' E 011°28'2 3.1
2017-Sep-21 23:00S 05°19' E 011°28'2 3.1
2017-Sep-21 22:30S 05°18' E 011°27'2 3.1
2017-Sep-21 22:00S 05°16' E 011°27'2 3.1
2017-Sep-21 21:30S 05°15' E 011°27'2 3.1
2017-Sep-21 21:00S 05°13' E 011°26'2 3.0
2017-Sep-21 20:30S 05°12' E 011°26'2 3.1
2017-Sep-21 20:00S 05°10' E 011°25'2 3.1
2017-Sep-21 19:30S 05°09' E 011°24'1 2.8
2017-Sep-21 19:00S 05°08' E 011°24'2 4.5
2017-Sep-21 18:30S 05°07' E 011°26'3 6.2
2017-Sep-21 18:00S 05°07' E 011°29'1 2.5
2017-Sep-21 17:30S 05°06' E 011°28'2 3.1
2017-Sep-21 16:59S 05°05' E 011°27'1 3.1
2017-Sep-21 16:30S 05°03' E 011°27'2 3.0
2017-Sep-21 15:57S 05°02' E 011°26'1 3.0
2017-Sep-21 15:28S 05°01' E 011°25'1 3.0
2017-Sep-21 14:59S 04°60' E 011°24'1 0.4
2017-Sep-21 13:23S 04°59' E 011°24'1 3.1
2017-Sep-21 12:54S 05°00' E 011°25'4 3.1
2017-Sep-21 11:44S 05°03' E 011°26'1 3.1
2017-Sep-21 11:30S 05°04' E 011°27'0 0.5
2017-Sep-21 10:50S 05°04' E 011°27'1 3.0
2017-Sep-21 10:21S 05°03' E 011°26'1 3.1
2017-Sep-21 10:00S 05°02' E 011°26'2 3.0
2017-Sep-21 09:19S 05°00' E 011°25'1 3.1
2017-Sep-21 09:00S 04°59' E 011°24'2 3.1
2017-Sep-21 08:25S 04°58' E 011°23'3 2.8
2017-Sep-21 07:10S 04°55' E 011°21'5 0.4
2017-Sep-20 20:06S 04°59' E 011°23'1 3.6
2017-Sep-20 19:55S 04°60' E 011°23'1 2.3
2017-Sep-20 19:24S 05°01' E 011°24'4 5.4
2017-Sep-20 18:44S 05°03' E 011°27'1 3.0
2017-Sep-20 18:29S 05°04' E 011°27'2 3.0
2017-Sep-20 17:59S 05°05' E 011°28'1 3.1
2017-Sep-20 17:30S 05°07' E 011°28'2 3.1
2017-Sep-20 17:00S 05°08' E 011°29'2 3.1
2017-Sep-20 16:30S 05°09' E 011°30'2 3.1
2017-Sep-20 15:50S 05°11' E 011°31'1 3.1
2017-Sep-20 15:26S 05°12' E 011°31'1 3.0
2017-Sep-20 14:59S 05°14' E 011°32'0 0.0
2017-Sep-20 13:57S 05°14' E 011°32'1 3.1
2017-Sep-20 13:30S 05°12' E 011°31'2 3.0
2017-Sep-20 13:00S 05°11' E 011°31'2 3.1
2017-Sep-20 12:27S 05°09' E 011°30'1 3.1
2017-Sep-20 12:00S 05°08' E 011°29'2 3.0
2017-Sep-20 11:30S 05°07' E 011°29'2 2.6
2017-Sep-20 10:53S 05°05' E 011°28'1 3.1
2017-Sep-20 10:30S 05°04' E 011°27'2 3.0
2017-Sep-20 09:58S 05°03' E 011°26'2 3.1
2017-Sep-20 09:24S 05°02' E 011°25'1 3.0
2017-Sep-20 08:55S 05°00' E 011°25'1 3.0
2017-Sep-20 08:30S 04°59' E 011°24'3 1.3
2017-Sep-20 06:18S 05°02' E 011°25'1 3.0
2017-Sep-20 05:58S 05°03' E 011°26'1 3.0
2017-Sep-20 05:29S 05°04' E 011°27'1 3.0
2017-Sep-20 04:59S 05°05' E 011°28'2 4.3
2017-Sep-20 04:30S 05°07' E 011°27'4 8.0
2017-Sep-20 04:00S 05°10' E 011°24'0 0.7
2017-Sep-20 03:30S 05°10' E 011°25'2 3.2
2017-Sep-20 03:00S 05°11' E 011°25'2 3.2
2017-Sep-20 02:30S 05°13' E 011°26'2 3.2
2017-Sep-20 02:00S 05°14' E 011°27'2 3.2
2017-Sep-20 01:30S 05°16' E 011°27'2 3.2
2017-Sep-20 01:00S 05°17' E 011°28'2 3.1
2017-Sep-20 00:30S 05°19' E 011°28'2 3.1
2017-Sep-20 00:00S 05°20' E 011°28'1 1.3
2017-Sep-19 23:22S 05°21' E 011°28'1 3.1
2017-Sep-19 23:00S 05°20' E 011°28'2 3.1
2017-Sep-19 22:30S 05°18' E 011°28'2 3.1
2017-Sep-19 22:00S 05°17' E 011°27'2 3.2
2017-Sep-19 21:29S 05°15' E 011°27'2 3.1
2017-Sep-19 21:00S 05°14' E 011°26'2 3.1
2017-Sep-19 20:30S 05°12' E 011°26'2 3.1
2017-Sep-19 20:00S 05°11' E 011°25'2 3.0
2017-Sep-19 19:30S 05°10' E 011°24'1 2.6
2017-Sep-19 19:00S 05°08' E 011°24'2 4.6
2017-Sep-19 18:28S 05°06' E 011°25'3 5.3
2017-Sep-19 17:57S 05°06' E 011°28'1 3.1
2017-Sep-19 17:29S 05°04' E 011°27'2 3.1
2017-Sep-19 17:00S 05°03' E 011°26'2 3.1
2017-Sep-19 16:30S 05°02' E 011°26'2 3.1
2017-Sep-19 15:56S 05°00' E 011°25'1 3.2
2017-Sep-19 15:30S 04°59' E 011°24'4 2.9
2017-Sep-19 14:00S 04°56' E 011°21'4 0.2
2017-Sep-18 17:15S 04°59' E 011°24'1 3.1
2017-Sep-18 16:53S 05°00' E 011°25'4 3.1
2017-Sep-18 15:43S 05°03' E 011°27'1 3.1
2017-Sep-18 15:25S 05°04' E 011°27'1 3.1
2017-Sep-18 14:57S 05°05' E 011°28'2 3.7
2017-Sep-18 14:30S 05°07' E 011°28'1 2.1
2017-Sep-18 13:59S 05°08' E 011°29'2 3.2
2017-Sep-18 13:26S 05°09' E 011°29'1 3.2
2017-Sep-18 12:59S 05°11' E 011°30'2 3.2
2017-Sep-18 12:29S 05°12' E 011°31'2 3.2
2017-Sep-18 11:59S 05°14' E 011°31'2 3.1
2017-Sep-18 11:29S 05°15' E 011°32'1 1.6
2017-Sep-18 10:59S 05°16' E 011°33'1 2.7
2017-Sep-18 10:28S 05°14' E 011°32'2 3.1
2017-Sep-18 09:48S 05°12' E 011°31'1 3.1
2017-Sep-18 09:30S 05°12' E 011°31'2 3.1
2017-Sep-18 09:00S 05°10' E 011°30'2 3.1
2017-Sep-18 08:29S 05°09' E 011°29'2 3.5
2017-Sep-18 07:59S 05°07' E 011°29'1 2.4
2017-Sep-18 07:30S 05°06' E 011°28'2 3.1
2017-Sep-18 07:00S 05°05' E 011°27'2 3.1
2017-Sep-18 06:21S 05°03' E 011°26'1 3.1
2017-Sep-18 05:57S 05°02' E 011°26'2 3.1
2017-Sep-18 05:28S 05°01' E 011°25'2 3.1
2017-Sep-18 04:56S 04°59' E 011°24'1 0.1
2017-Sep-17 22:17S 04°59' E 011°24'3 3.8
2017-Sep-17 21:23S 05°02' E 011°25'1 1.2
2017-Sep-17 20:33S 05°03' E 011°26'0 0.6
2017-Sep-17 20:28S 05°03' E 011°26'0 0.4
2017-Sep-17 20:00S 05°03' E 011°26'1 1.1
2017-Sep-17 19:18S 05°03' E 011°26'0 1.2
2017-Sep-17 18:56S 05°04' E 011°27'1 2.8
2017-Sep-17 18:25S 05°05' E 011°27'1 3.1
2017-Sep-17 18:00S 05°06' E 011°28'2 3.1
2017-Sep-17 17:29S 05°07' E 011°29'2 3.1
2017-Sep-17 16:59S 05°09' E 011°30'2 3.1
2017-Sep-17 16:30S 05°10' E 011°30'2 3.1
2017-Sep-17 15:48S 05°12' E 011°31'2 3.1
2017-Sep-17 15:09S 05°14' E 011°32'1 3.1
2017-Sep-17 14:57S 05°14' E 011°32'1 2.5
2017-Sep-17 14:28S 05°16' E 011°33'1 2.6
2017-Sep-17 13:56S 05°14' E 011°32'1 3.1
2017-Sep-17 13:28S 05°13' E 011°32'1 3.1
2017-Sep-17 13:00S 05°12' E 011°31'2 3.1
2017-Sep-17 12:30S 05°10' E 011°30'2 3.1
2017-Sep-17 12:00S 05°09' E 011°30'2 3.1
2017-Sep-17 11:27S 05°07' E 011°29'0 0.5
2017-Sep-17 10:59S 05°07' E 011°29'2 3.1
2017-Sep-17 10:30S 05°08' E 011°29'2 3.1
2017-Sep-17 10:00S 05°10' E 011°30'2 3.1
2017-Sep-17 09:28S 05°11' E 011°31'2 3.1
2017-Sep-17 08:53S 05°13' E 011°31'1 3.1
2017-Sep-17 08:30S 05°14' E 011°32'2 3.9
2017-Sep-17 08:00S 05°16' E 011°33'1 1.9
2017-Sep-17 07:23S 05°15' E 011°32'2 3.1
2017-Sep-17 06:36S 05°13' E 011°31'1 3.1
2017-Sep-17 06:26S 05°12' E 011°31'1 3.1
2017-Sep-17 06:00S 05°11' E 011°30'2 3.1
2017-Sep-17 05:30S 05°10' E 011°30'2 3.1
2017-Sep-17 05:00S 05°08' E 011°29'2 4.0
2017-Sep-17 04:30S 05°07' E 011°27'3 6.9
2017-Sep-17 04:00S 05°08' E 011°24'0 0.6
2017-Sep-17 03:30S 05°09' E 011°24'2 3.1
2017-Sep-17 03:00S 05°10' E 011°25'2 3.2
2017-Sep-17 02:29S 05°12' E 011°26'2 3.2
2017-Sep-17 02:00S 05°13' E 011°26'2 3.2
2017-Sep-17 01:30S 05°14' E 011°27'2 3.2
2017-Sep-17 01:00S 05°16' E 011°27'2 4.0
2017-Sep-17 00:30S 05°18' E 011°28'1 2.6
2017-Sep-17 00:00S 05°17' E 011°27'2 3.1
2017-Sep-16 23:30S 05°15' E 011°27'2 3.1
2017-Sep-16 23:00S 05°14' E 011°26'2 3.1
2017-Sep-16 22:30S 05°12' E 011°26'2 3.2
2017-Sep-16 22:00S 05°11' E 011°25'2 3.2
2017-Sep-16 21:30S 05°09' E 011°24'2 3.2
2017-Sep-16 21:00S 05°08' E 011°24'2 3.1
2017-Sep-16 20:30S 05°07' E 011°23'2 3.2
2017-Sep-16 20:00S 05°05' E 011°22'2 3.2
2017-Sep-16 19:30S 05°04' E 011°21'2 3.3
2017-Sep-16 18:56S 05°02' E 011°21'5 0.3
2017-Sep-16 04:26S 04°58' E 011°23'0 0.5
2017-Sep-16 03:44S 04°58' E 011°23'7 0.4
2017-Sep-15 12:10S 05°04' E 011°27'0 3.1
2017-Sep-15 12:00S 05°04' E 011°27'2 3.1
2017-Sep-15 11:30S 05°06' E 011°28'1 2.7
2017-Sep-15 10:59S 05°07' E 011°28'1 3.1
2017-Sep-15 10:30S 05°08' E 011°29'2 3.1
2017-Sep-15 10:00S 05°10' E 011°30'2 3.1
2017-Sep-15 09:30S 05°11' E 011°30'2 3.1
2017-Sep-15 09:00S 05°12' E 011°31'2 3.1
2017-Sep-15 08:29S 05°14' E 011°32'2 3.5
2017-Sep-15 07:58S 05°16' E 011°32'1 0.9
2017-Sep-15 07:22S 05°15' E 011°32'1 3.1
2017-Sep-15 06:58S 05°14' E 011°32'2 3.1
2017-Sep-15 06:27S 05°13' E 011°31'1 3.1
2017-Sep-15 06:00S 05°11' E 011°30'2 3.1
2017-Sep-15 05:30S 05°10' E 011°30'1 3.1
2017-Sep-15 05:01S 05°09' E 011°29'2 3.4
2017-Sep-15 04:30S 05°07' E 011°28'1 1.1
2017-Sep-15 04:00S 05°07' E 011°28'1 1.4
2017-Sep-15 03:29S 05°06' E 011°28'0 0.4
2017-Sep-15 02:59S 05°06' E 011°28'1 2.8
2017-Sep-15 02:29S 05°05' E 011°27'1 2.9
2017-Sep-15 01:59S 05°03' E 011°26'2 3.0
2017-Sep-15 01:29S 05°02' E 011°26'1 3.1
2017-Sep-15 01:00S 05°01' E 011°25'2 3.1
2017-Sep-15 00:30S 05°00' E 011°24'3 3.1
2017-Sep-14 23:30S 04°57' E 011°22'2 3.1
2017-Sep-14 22:57S 04°56' E 011°21'4 0.8
2017-Sep-14 17:04S 04°59' E 011°24'0 3.1
2017-Sep-14 16:59S 04°59' E 011°24'2 3.1
2017-Sep-14 16:27S 05°01' E 011°25'2 3.1
2017-Sep-14 15:57S 05°02' E 011°26'1 3.1
2017-Sep-14 15:29S 05°03' E 011°26'2 3.1
2017-Sep-14 14:51S 05°05' E 011°28'1 3.1
2017-Sep-14 14:24S 05°06' E 011°28'1 2.9
2017-Sep-14 14:00S 05°07' E 011°28'2 3.1
2017-Sep-14 13:30S 05°09' E 011°29'2 3.1
2017-Sep-14 13:00S 05°10' E 011°30'2 3.2
2017-Sep-14 12:24S 05°12' E 011°31'1 3.1
2017-Sep-14 11:55S 05°13' E 011°31'2 3.1
2017-Sep-14 11:25S 05°15' E 011°32'0 0.3
2017-Sep-14 10:49S 05°15' E 011°32'2 3.1
2017-Sep-14 10:10S 05°13' E 011°31'1 3.1
2017-Sep-14 10:00S 05°12' E 011°31'2 3.1
2017-Sep-14 09:29S 05°11' E 011°30'1 3.1
2017-Sep-14 09:00S 05°10' E 011°30'2 3.1
2017-Sep-14 08:30S 05°08' E 011°29'2 3.4
2017-Sep-14 07:59S 05°07' E 011°28'1 1.9
2017-Sep-14 07:30S 05°08' E 011°29'2 3.1
2017-Sep-14 07:00S 05°09' E 011°29'2 3.1
2017-Sep-14 06:30S 05°10' E 011°30'2 3.1
2017-Sep-14 06:00S 05°12' E 011°31'2 3.1
2017-Sep-14 05:29S 05°13' E 011°31'2 3.1
2017-Sep-14 04:55S 05°15' E 011°32'2 4.5
2017-Sep-14 04:30S 05°17' E 011°32'5 9.4
2017-Sep-14 04:00S 05°19' E 011°28'1 1.2
2017-Sep-14 03:30S 05°19' E 011°28'1 2.8
2017-Sep-14 03:00S 05°18' E 011°28'2 3.2
2017-Sep-14 02:30S 05°16' E 011°27'2 3.2
2017-Sep-14 02:00S 05°15' E 011°27'2 3.2
2017-Sep-14 01:30S 05°13' E 011°26'2 3.2
2017-Sep-14 01:00S 05°12' E 011°26'2 3.2
2017-Sep-14 00:30S 05°11' E 011°25'2 3.2
2017-Sep-14 00:00S 05°09' E 011°24'2 3.2
2017-Sep-13 23:30S 05°08' E 011°24'2 3.2
2017-Sep-13 23:00S 05°06' E 011°23'2 3.2
2017-Sep-13 22:30S 05°05' E 011°22'2 3.2
2017-Sep-13 22:00S 05°03' E 011°21'2 3.2
2017-Sep-13 21:30S 05°02' E 011°21'2 3.2
2017-Sep-13 20:59S 05°01' E 011°20'2 3.1
2017-Sep-13 20:30S 04°59' E 011°19'1 2.8
2017-Sep-13 19:59S 04°58' E 011°18'  
Track history (hours):
 
Tides and Currents Weather Stations Pressure Air Temp Water Temp Dewpoint Dewpoint Depression Visibility Wind Speed Wind Dir Waves Ship Positions

Mazagon R

Last reported at 2017-Sep-22 02:00 UTC. Time now 2017-Sep-22 02:49 UTC.
Position S 05°15' E 011°27'.

Length 34 m.

Type: Fishing. MMSI: 224300000.

Date/timePositionNaut miles runAvg speedWind from/ knotsBaromVisibWave heightAir tempDewpointWater temp
2017-Sep-22 02:00S 05°15' E 011°27'2 3.1
2017-Sep-22 01:30S 05°16' E 011°27'2 3.1
2017-Sep-22 01:00S 05°18' E 011°28'2 3.1
2017-Sep-22 00:30S 05°19' E 011°28'2 3.4
2017-Sep-22 00:00S 05°21' E 011°28'0 0.9
2017-Sep-21 23:29S 05°21' E 011°28'2 3.1
2017-Sep-21 23:00S 05°19' E 011°28'2 3.1
2017-Sep-21 22:30S 05°18' E 011°27'2 3.1
2017-Sep-21 22:00S 05°16' E 011°27'2 3.1
2017-Sep-21 21:30S 05°15' E 011°27'2 3.1
2017-Sep-21 21:00S 05°13' E 011°26'2 3.0
2017-Sep-21 20:30S 05°12' E 011°26'2 3.1
2017-Sep-21 20:00S 05°10' E 011°25'2 3.1
2017-Sep-21 19:30S 05°09' E 011°24'1 2.8
2017-Sep-21 19:00S 05°08' E 011°24'2 4.5
2017-Sep-21 18:30S 05°07' E 011°26'3 6.2
2017-Sep-21 18:00S 05°07' E 011°29'1 2.5
2017-Sep-21 17:30S 05°06' E 011°28'2 3.1
2017-Sep-21 16:59S 05°05' E 011°27'1 3.1
2017-Sep-21 16:30S 05°03' E 011°27'2 3.0
2017-Sep-21 15:57S 05°02' E 011°26'1 3.0
2017-Sep-21 15:28S 05°01' E 011°25'1 3.0
2017-Sep-21 14:59S 04°60' E 011°24'1 0.4
2017-Sep-21 13:23S 04°59' E 011°24'1 3.1
2017-Sep-21 12:54S 05°00' E 011°25'4 3.1
2017-Sep-21 11:44S 05°03' E 011°26'1 3.1
2017-Sep-21 11:30S 05°04' E 011°27'0 0.5
2017-Sep-21 10:50S 05°04' E 011°27'1 3.0
2017-Sep-21 10:21S 05°03' E 011°26'1 3.1
2017-Sep-21 10:00S 05°02' E 011°26'2 3.0
2017-Sep-21 09:19S 05°00' E 011°25'1 3.1
2017-Sep-21 09:00S 04°59' E 011°24'2 3.1
2017-Sep-21 08:25S 04°58' E 011°23'3 2.8
2017-Sep-21 07:10S 04°55' E 011°21'5 0.4
2017-Sep-20 20:06S 04°59' E 011°23'1 3.6
2017-Sep-20 19:55S 04°60' E 011°23'1 2.3
2017-Sep-20 19:24S 05°01' E 011°24'4 5.4
2017-Sep-20 18:44S 05°03' E 011°27'1 3.0
2017-Sep-20 18:29S 05°04' E 011°27'2 3.0
2017-Sep-20 17:59S 05°05' E 011°28'1 3.1
2017-Sep-20 17:30S 05°07' E 011°28'2 3.1
2017-Sep-20 17:00S 05°08' E 011°29'2 3.1
2017-Sep-20 16:30S 05°09' E 011°30'2 3.1
2017-Sep-20 15:50S 05°11' E 011°31'1 3.1
2017-Sep-20 15:26S 05°12' E 011°31'1 3.0
2017-Sep-20 14:59S 05°14' E 011°32'0 0.0
2017-Sep-20 13:57S 05°14' E 011°32'1 3.1
2017-Sep-20 13:30S 05°12' E 011°31'2 3.0
2017-Sep-20 13:00S 05°11' E 011°31'2 3.1
2017-Sep-20 12:27S 05°09' E 011°30'1 3.1
2017-Sep-20 12:00S 05°08' E 011°29'2 3.0
2017-Sep-20 11:30S 05°07' E 011°29'2 2.6
2017-Sep-20 10:53S 05°05' E 011°28'1 3.1
2017-Sep-20 10:30S 05°04' E 011°27'2 3.0
2017-Sep-20 09:58S 05°03' E 011°26'2 3.1
2017-Sep-20 09:24S 05°02' E 011°25'1 3.0
2017-Sep-20 08:55S 05°00' E 011°25'1 3.0
2017-Sep-20 08:30S 04°59' E 011°24'3 1.3
2017-Sep-20 06:18S 05°02' E 011°25'1 3.0
2017-Sep-20 05:58S 05°03' E 011°26'1 3.0
2017-Sep-20 05:29S 05°04' E 011°27'1 3.0
2017-Sep-20 04:59S 05°05' E 011°28'2 4.3
2017-Sep-20 04:30S 05°07' E 011°27'4 8.0
2017-Sep-20 04:00S 05°10' E 011°24'0 0.7
2017-Sep-20 03:30S 05°10' E 011°25'2 3.2
2017-Sep-20 03:00S 05°11' E 011°25'2 3.2
2017-Sep-20 02:30S 05°13' E 011°26'2 3.2
2017-Sep-20 02:00S 05°14' E 011°27'2 3.2
2017-Sep-20 01:30S 05°16' E 011°27'2 3.2
2017-Sep-20 01:00S 05°17' E 011°28'2 3.1
2017-Sep-20 00:30S 05°19' E 011°28'2 3.1
2017-Sep-20 00:00S 05°20' E 011°28'1 1.3
2017-Sep-19 23:22S 05°21' E 011°28'1 3.1
2017-Sep-19 23:00S 05°20' E 011°28'2 3.1
2017-Sep-19 22:30S 05°18' E 011°28'2 3.1
2017-Sep-19 22:00S 05°17' E 011°27'2 3.2
2017-Sep-19 21:29S 05°15' E 011°27'2 3.1
2017-Sep-19 21:00S 05°14' E 011°26'2 3.1
2017-Sep-19 20:30S 05°12' E 011°26'2 3.1
2017-Sep-19 20:00S 05°11' E 011°25'2 3.0
2017-Sep-19 19:30S 05°10' E 011°24'1 2.6
2017-Sep-19 19:00S 05°08' E 011°24'2 4.6
2017-Sep-19 18:28S 05°06' E 011°25'3 5.3
2017-Sep-19 17:57S 05°06' E 011°28'1 3.1
2017-Sep-19 17:29S 05°04' E 011°27'2 3.1
2017-Sep-19 17:00S 05°03' E 011°26'2 3.1
2017-Sep-19 16:30S 05°02' E 011°26'2 3.1
2017-Sep-19 15:56S 05°00' E 011°25'1 3.2
2017-Sep-19 15:30S 04°59' E 011°24'4 2.9
2017-Sep-19 14:00S 04°56' E 011°21'4 0.2
2017-Sep-18 17:15S 04°59' E 011°24'1 3.1
2017-Sep-18 16:53S 05°00' E 011°25'4 3.1
2017-Sep-18 15:43S 05°03' E 011°27'1 3.1
2017-Sep-18 15:25S 05°04' E 011°27'1 3.1
2017-Sep-18 14:57S 05°05' E 011°28'2 3.7
2017-Sep-18 14:30S 05°07' E 011°28'1 2.1
2017-Sep-18 13:59S 05°08' E 011°29'2 3.2
2017-Sep-18 13:26S 05°09' E 011°29'1 3.2
2017-Sep-18 12:59S 05°11' E 011°30'2 3.2
2017-Sep-18 12:29S 05°12' E 011°31'2 3.2
2017-Sep-18 11:59S 05°14' E 011°31'2 3.1
2017-Sep-18 11:29S 05°15' E 011°32'1 1.6
2017-Sep-18 10:59S 05°16' E 011°33'1 2.7
2017-Sep-18 10:28S 05°14' E 011°32'2 3.1
2017-Sep-18 09:48S 05°12' E 011°31'1 3.1
2017-Sep-18 09:30S 05°12' E 011°31'2 3.1
2017-Sep-18 09:00S 05°10' E 011°30'2 3.1
2017-Sep-18 08:29S 05°09' E 011°29'2 3.5
2017-Sep-18 07:59S 05°07' E 011°29'1 2.4
2017-Sep-18 07:30S 05°06' E 011°28'2 3.1
2017-Sep-18 07:00S 05°05' E 011°27'2 3.1
2017-Sep-18 06:21S 05°03' E 011°26'1 3.1
2017-Sep-18 05:57S 05°02' E 011°26'2 3.1
2017-Sep-18 05:28S 05°01' E 011°25'2 3.1
2017-Sep-18 04:56S 04°59' E 011°24'1 0.1
2017-Sep-17 22:17S 04°59' E 011°24'3 3.8
2017-Sep-17 21:23S 05°02' E 011°25'1 1.2
2017-Sep-17 20:33S 05°03' E 011°26'0 0.6
2017-Sep-17 20:28S 05°03' E 011°26'0 0.4
2017-Sep-17 20:00S 05°03' E 011°26'1 1.1
2017-Sep-17 19:18S 05°03' E 011°26'0 1.2
2017-Sep-17 18:56S 05°04' E 011°27'1 2.8
2017-Sep-17 18:25S 05°05' E 011°27'1 3.1
2017-Sep-17 18:00S 05°06' E 011°28'2 3.1
2017-Sep-17 17:29S 05°07' E 011°29'2 3.1
2017-Sep-17 16:59S 05°09' E 011°30'2 3.1
2017-Sep-17 16:30S 05°10' E 011°30'2 3.1
2017-Sep-17 15:48S 05°12' E 011°31'2 3.1
2017-Sep-17 15:09S 05°14' E 011°32'1 3.1
2017-Sep-17 14:57S 05°14' E 011°32'1 2.5
2017-Sep-17 14:28S 05°16' E 011°33'1 2.6
2017-Sep-17 13:56S 05°14' E 011°32'1 3.1
2017-Sep-17 13:28S 05°13' E 011°32'1 3.1
2017-Sep-17 13:00S 05°12' E 011°31'2 3.1
2017-Sep-17 12:30S 05°10' E 011°30'2 3.1
2017-Sep-17 12:00S 05°09' E 011°30'2 3.1
2017-Sep-17 11:27S 05°07' E 011°29'0 0.5
2017-Sep-17 10:59S 05°07' E 011°29'2 3.1
2017-Sep-17 10:30S 05°08' E 011°29'2 3.1
2017-Sep-17 10:00S 05°10' E 011°30'2 3.1
2017-Sep-17 09:28S 05°11' E 011°31'2 3.1
2017-Sep-17 08:53S 05°13' E 011°31'1 3.1
2017-Sep-17 08:30S 05°14' E 011°32'2 3.9
2017-Sep-17 08:00S 05°16' E 011°33'1 1.9
2017-Sep-17 07:23S 05°15' E 011°32'2 3.1
2017-Sep-17 06:36S 05°13' E 011°31'1 3.1
2017-Sep-17 06:26S 05°12' E 011°31'1 3.1
2017-Sep-17 06:00S 05°11' E 011°30'2 3.1
2017-Sep-17 05:30S 05°10' E 011°30'2 3.1
2017-Sep-17 05:00S 05°08' E 011°29'2 4.0
2017-Sep-17 04:30S 05°07' E 011°27'3 6.9
2017-Sep-17 04:00S 05°08' E 011°24'0 0.6
2017-Sep-17 03:30S 05°09' E 011°24'2 3.1
2017-Sep-17 03:00S 05°10' E 011°25'2 3.2
2017-Sep-17 02:29S 05°12' E 011°26'2 3.2
2017-Sep-17 02:00S 05°13' E 011°26'2 3.2
2017-Sep-17 01:30S 05°14' E 011°27'2 3.2
2017-Sep-17 01:00S 05°16' E 011°27'2 4.0
2017-Sep-17 00:30S 05°18' E 011°28'1 2.6
2017-Sep-17 00:00S 05°17' E 011°27'2 3.1
2017-Sep-16 23:30S 05°15' E 011°27'2 3.1
2017-Sep-16 23:00S 05°14' E 011°26'2 3.1
2017-Sep-16 22:30S 05°12' E 011°26'2 3.2
2017-Sep-16 22:00S 05°11' E 011°25'2 3.2
2017-Sep-16 21:30S 05°09' E 011°24'2 3.2
2017-Sep-16 21:00S 05°08' E 011°24'2 3.1
2017-Sep-16 20:30S 05°07' E 011°23'2 3.2
2017-Sep-16 20:00S 05°05' E 011°22'2 3.2
2017-Sep-16 19:30S 05°04' E 011°21'2 3.3
2017-Sep-16 18:56S 05°02' E 011°21'5 0.3
2017-Sep-16 04:26S 04°58' E 011°23'0 0.5
2017-Sep-16 03:44S 04°58' E 011°23'7 0.4
2017-Sep-15 12:10S 05°04' E 011°27'0 3.1
2017-Sep-15 12:00S 05°04' E 011°27'2 3.1
2017-Sep-15 11:30S 05°06' E 011°28'1 2.7
2017-Sep-15 10:59S 05°07' E 011°28'1 3.1
2017-Sep-15 10:30S 05°08' E 011°29'2 3.1
2017-Sep-15 10:00S 05°10' E 011°30'2 3.1
2017-Sep-15 09:30S 05°11' E 011°30'2 3.1
2017-Sep-15 09:00S 05°12' E 011°31'2 3.1
2017-Sep-15 08:29S 05°14' E 011°32'2 3.5
2017-Sep-15 07:58S 05°16' E 011°32'1 0.9
2017-Sep-15 07:22S 05°15' E 011°32'1 3.1
2017-Sep-15 06:58S 05°14' E 011°32'2 3.1
2017-Sep-15 06:27S 05°13' E 011°31'1 3.1
2017-Sep-15 06:00S 05°11' E 011°30'2 3.1
2017-Sep-15 05:30S 05°10' E 011°30'1 3.1
2017-Sep-15 05:01S 05°09' E 011°29'2 3.4
2017-Sep-15 04:30S 05°07' E 011°28'1 1.1
2017-Sep-15 04:00S 05°07' E 011°28'1 1.4
2017-Sep-15 03:29S 05°06' E 011°28'0 0.4
2017-Sep-15 02:59S 05°06' E 011°28'1 2.8
2017-Sep-15 02:29S 05°05' E 011°27'1 2.9
2017-Sep-15 01:59S 05°03' E 011°26'2 3.0
2017-Sep-15 01:29S 05°02' E 011°26'1 3.1
2017-Sep-15 01:00S 05°01' E 011°25'2 3.1
2017-Sep-15 00:30S 05°00' E 011°24'3 3.1
2017-Sep-14 23:30S 04°57' E 011°22'2 3.1
2017-Sep-14 22:57S 04°56' E 011°21'4 0.8
2017-Sep-14 17:04S 04°59' E 011°24'0 3.1
2017-Sep-14 16:59S 04°59' E 011°24'2 3.1
2017-Sep-14 16:27S 05°01' E 011°25'2 3.1
2017-Sep-14 15:57S 05°02' E 011°26'1 3.1
2017-Sep-14 15:29S 05°03' E 011°26'2 3.1
2017-Sep-14 14:51S 05°05' E 011°28'1 3.1
2017-Sep-14 14:24S 05°06' E 011°28'1 2.9
2017-Sep-14 14:00S 05°07' E 011°28'2 3.1
2017-Sep-14 13:30S 05°09' E 011°29'2 3.1
2017-Sep-14 13:00S 05°10' E 011°30'2 3.2
2017-Sep-14 12:24S 05°12' E 011°31'1 3.1
2017-Sep-14 11:55S 05°13' E 011°31'2 3.1
2017-Sep-14 11:25S 05°15' E 011°32'0 0.3
2017-Sep-14 10:49S 05°15' E 011°32'2 3.1
2017-Sep-14 10:10S 05°13' E 011°31'1 3.1
2017-Sep-14 10:00S 05°12' E 011°31'2 3.1
2017-Sep-14 09:29S 05°11' E 011°30'1 3.1
2017-Sep-14 09:00S 05°10' E 011°30'2 3.1
2017-Sep-14 08:30S 05°08' E 011°29'2 3.4
2017-Sep-14 07:59S 05°07' E 011°28'1 1.9
2017-Sep-14 07:30S 05°08' E 011°29'2 3.1
2017-Sep-14 07:00S 05°09' E 011°29'2 3.1
2017-Sep-14 06:30S 05°10' E 011°30'2 3.1
2017-Sep-14 06:00S 05°12' E 011°31'2 3.1
2017-Sep-14 05:29S 05°13' E 011°31'2 3.1
2017-Sep-14 04:55S 05°15' E 011°32'2 4.5
2017-Sep-14 04:30S 05°17' E 011°32'5 9.4
2017-Sep-14 04:00S 05°19' E 011°28'1 1.2
2017-Sep-14 03:30S 05°19' E 011°28'1 2.8
2017-Sep-14 03:00S 05°18' E 011°28'2 3.2
2017-Sep-14 02:30S 05°16' E 011°27'2 3.2
2017-Sep-14 02:00S 05°15' E 011°27'2 3.2
2017-Sep-14 01:30S 05°13' E 011°26'2 3.2
2017-Sep-14 01:00S 05°12' E 011°26'2 3.2
2017-Sep-14 00:30S 05°11' E 011°25'2 3.2
2017-Sep-14 00:00S 05°09' E 011°24'2 3.2
2017-Sep-13 23:30S 05°08' E 011°24'2 3.2
2017-Sep-13 23:00S 05°06' E 011°23'2 3.2
2017-Sep-13 22:30S 05°05' E 011°22'2 3.2
2017-Sep-13 22:00S 05°03' E 011°21'2 3.2
2017-Sep-13 21:30S 05°02' E 011°21'2 3.2
2017-Sep-13 20:59S 05°01' E 011°20'2 3.1
2017-Sep-13 20:30S 04°59' E 011°19'1 2.8
2017-Sep-13 19:59S 04°58' E 011°18'  

Dump ship's entire track history